sensor_id;sensor_type;location;lat;lon;timestamp;temperature;humidity
27667;DHT22;15074;50.940;5.282;2023-03-01T00:04:50;1.30;99.90
27667;DHT22;15074;50.940;5.282;2023-03-01T00:07:16;1.30;99.90
27667;DHT22;15074;50.940;5.282;2023-03-01T00:09:42;1.30;99.90
27667;DHT22;15074;50.940;5.282;2023-03-01T00:12:07;1.30;99.90
27667;DHT22;15074;50.940;5.282;2023-03-01T00:18:39;1.10;99.90
27667;DHT22;15074;50.940;5.282;2023-03-01T00:21:05;1.10;99.90
27667;DHT22;15074;50.940;5.282;2023-03-01T00:23:31;1.10;99.90
27667;DHT22;15074;50.940;5.282;2023-03-01T00:25:58;1.00;99.90
27667;DHT22;15074;50.940;5.282;2023-03-01T00:28:24;1.00;99.90
27667;DHT22;15074;50.940;5.282;2023-03-01T00:34:12;1.00;99.90
27667;DHT22;15074;50.940;5.282;2023-03-01T00:36:38;0.80;99.90
27667;DHT22;15074;50.940;5.282;2023-03-01T00:39:05;0.90;99.90
27667;DHT22;15074;50.940;5.282;2023-03-01T00:55:36;0.80;99.90
27667;DHT22;15074;50.940;5.282;2023-03-01T00:58:22;0.80;99.90
27667;DHT22;15074;50.940;5.282;2023-03-01T01:00:48;0.80;99.90
27667;DHT22;15074;50.940;5.282;2023-03-01T01:03:13;0.80;99.90
27667;DHT22;15074;50.940;5.282;2023-03-01T01:09:13;0.70;99.90
27667;DHT22;15074;50.940;5.282;2023-03-01T01:14:47;0.50;99.90
27667;DHT22;15074;50.940;5.282;2023-03-01T01:17:12;0.20;99.90
27667;DHT22;15074;50.940;5.282;2023-03-01T01:19:38;0.20;99.90
27667;DHT22;15074;50.940;5.282;2023-03-01T01:28:57;0.00;99.90
27667;DHT22;15074;50.940;5.282;2023-03-01T01:31:24;0.10;99.90
27667;DHT22;15074;50.940;5.282;2023-03-01T01:37:32;0.30;99.90
27667;DHT22;15074;50.940;5.282;2023-03-01T01:46:54;0.20;99.90
27667;DHT22;15074;50.940;5.282;2023-03-01T01:49:35;0.20;99.90
27667;DHT22;15074;50.940;5.282;2023-03-01T01:52:09;0.30;99.90
27667;DHT22;15074;50.940;5.282;2023-03-01T01:54:57;0.30;99.90
27667;DHT22;15074;50.940;5.282;2023-03-01T01:57:26;0.30;99.90
27667;DHT22;15074;50.940;5.282;2023-03-01T01:59:56;0.20;99.90
27667;DHT22;15074;50.940;5.282;2023-03-01T02:02:53;0.20;99.90
27667;DHT22;15074;50.940;5.282;2023-03-01T02:18:50;0.00;99.90
27667;DHT22;15074;50.940;5.282;2023-03-01T02:21:35;-0.10;99.90
27667;DHT22;15074;50.940;5.282;2023-03-01T02:30:20;-0.10;99.90
27667;DHT22;15074;50.940;5.282;2023-03-01T02:32:46;-0.20;99.90
27667;DHT22;15074;50.940;5.282;2023-03-01T02:35:18;-0.20;99.90
27667;DHT22;15074;50.940;5.282;2023-03-01T02:37:45;-0.10;99.90
27667;DHT22;15074;50.940;5.282;2023-03-01T02:40:17;-0.10;99.90
27667;DHT22;15074;50.940;5.282;2023-03-01T02:43:03;-0.20;99.90
27667;DHT22;15074;50.940;5.282;2023-03-01T02:45:29;-0.20;99.90
27667;DHT22;15074;50.940;5.282;2023-03-01T02:47:56;-0.20;99.90
27667;DHT22;15074;50.940;5.282;2023-03-01T02:56:51;-0.20;99.90
27667;DHT22;15074;50.940;5.282;2023-03-01T02:59:34;-0.20;99.90
27667;DHT22;15074;50.940;5.282;2023-03-01T03:02:28;-0.20;99.90
27667;DHT22;15074;50.940;5.282;2023-03-01T03:05:18;-0.20;99.90
27667;DHT22;15074;50.940;5.282;2023-03-01T03:08:12;-0.30;99.90
27667;DHT22;15074;50.940;5.282;2023-03-01T03:10:56;-0.20;99.90
27667;DHT22;15074;50.940;5.282;2023-03-01T03:13:22;-0.20;99.90
27667;DHT22;15074;50.940;5.282;2023-03-01T03:15:54;-0.40;99.90
27667;DHT22;15074;50.940;5.282;2023-03-01T03:18:23;-0.50;99.90
27667;DHT22;15074;50.940;5.282;2023-03-01T03:20:52;-0.40;99.90
27667;DHT22;15074;50.940;5.282;2023-03-01T03:26:57;-0.60;99.90
27667;DHT22;15074;50.940;5.282;2023-03-01T03:32:25;-0.50;99.90
27667;DHT22;15074;50.940;5.282;2023-03-01T03:35:08;-0.60;99.90
27667;DHT22;15074;50.940;5.282;2023-03-01T03:41:11;-0.70;99.90
27667;DHT22;15074;50.940;5.282;2023-03-01T03:43:39;-0.80;99.90
27667;DHT22;15074;50.940;5.282;2023-03-01T03:46:06;-0.80;99.90
27667;DHT22;15074;50.940;5.282;2023-03-01T03:48:44;-0.70;99.90
27667;DHT22;15074;50.940;5.282;2023-03-01T03:51:11;-0.80;99.90
27667;DHT22;15074;50.940;5.282;2023-03-01T03:53:37;-0.70;99.90
27667;DHT22;15074;50.940;5.282;2023-03-01T03:56:03;-0.60;99.90
27667;DHT22;15074;50.940;5.282;2023-03-01T03:58:29;-0.60;99.90
27667;DHT22;15074;50.940;5.282;2023-03-01T04:00:56;-0.70;99.90
27667;DHT22;15074;50.940;5.282;2023-03-01T04:03:23;-0.60;99.90
27667;DHT22;15074;50.940;5.282;2023-03-01T04:05:50;-0.70;99.90
27667;DHT22;15074;50.940;5.282;2023-03-01T04:08:17;-0.70;99.90
27667;DHT22;15074;50.940;5.282;2023-03-01T04:10:47;-0.70;99.90
27667;DHT22;15074;50.940;5.282;2023-03-01T04:13:16;-0.70;99.90
27667;DHT22;15074;50.940;5.282;2023-03-01T04:15:42;-0.70;99.90
27667;DHT22;15074;50.940;5.282;2023-03-01T04:18:29;-0.80;99.90
27667;DHT22;15074;50.940;5.282;2023-03-01T04:20:56;-0.80;99.90
27667;DHT22;15074;50.940;5.282;2023-03-01T04:23:21;-0.80;99.90
27667;DHT22;15074;50.940;5.282;2023-03-01T04:26:27;-0.80;99.90
27667;DHT22;15074;50.940;5.282;2023-03-01T04:28:56;-0.80;99.90
27667;DHT22;15074;50.940;5.282;2023-03-01T04:31:21;-0.80;99.90
27667;DHT22;15074;50.940;5.282;2023-03-01T04:33:50;-0.90;99.90
27667;DHT22;15074;50.940;5.282;2023-03-01T04:36:22;-0.90;99.90
27667;DHT22;15074;50.940;5.282;2023-03-01T04:49:34;-1.00;99.90
27667;DHT22;15074;50.940;5.282;2023-03-01T06:03:47;-1.30;99.90
27667;DHT22;15074;50.940;5.282;2023-03-01T06:06:13;-1.40;99.90
27667;DHT22;15074;50.940;5.282;2023-03-01T06:08:38;-1.40;99.90
27667;DHT22;15074;50.940;5.282;2023-03-01T06:24:34;-1.40;99.90
27667;DHT22;15074;50.940;5.282;2023-03-01T06:27:36;-1.40;99.90
27667;DHT22;15074;50.940;5.282;2023-03-01T06:37:11;-1.40;99.90
27667;DHT22;15074;50.940;5.282;2023-03-01T06:43:20;-1.30;99.90
27667;DHT22;15074;50.940;5.282;2023-03-01T07:04:42;2.70;99.90
27667;DHT22;15074;50.940;5.282;2023-03-01T07:07:08;3.50;99.90
27667;DHT22;15074;50.940;5.282;2023-03-01T07:09:33;3.80;99.90
27667;DHT22;15074;50.940;5.282;2023-03-01T07:11:59;4.00;99.90
27667;DHT22;15074;50.940;5.282;2023-03-01T07:14:25;4.20;99.90
27667;DHT22;15074;50.940;5.282;2023-03-01T07:16:52;4.40;99.90
27667;DHT22;15074;50.940;5.282;2023-03-01T07:19:18;5.00;99.90
27667;DHT22;15074;50.940;5.282;2023-03-01T07:21:43;5.20;99.90
27667;DHT22;15074;50.940;5.282;2023-03-01T07:24:09;5.70;99.90
27667;DHT22;15074;50.940;5.282;2023-03-01T07:26:35;5.90;99.90
27667;DHT22;15074;50.940;5.282;2023-03-01T07:29:02;5.90;99.90
27667;DHT22;15074;50.940;5.282;2023-03-01T07:31:28;4.90;99.90
27667;DHT22;15074;50.940;5.282;2023-03-01T07:33:55;3.90;99.90
27667;DHT22;15074;50.940;5.282;2023-03-01T07:36:21;3.70;99.90
27667;DHT22;15074;50.940;5.282;2023-03-01T07:38:47;3.30;99.90
27667;DHT22;15074;50.940;5.282;2023-03-01T07:41:12;3.10;99.90
27667;DHT22;15074;50.940;5.282;2023-03-01T07:43:38;3.10;99.90
27667;DHT22;15074;50.940;5.282;2023-03-01T07:46:04;3.30;99.90
27667;DHT22;15074;50.940;5.282;2023-03-01T07:48:31;3.00;99.90
27667;DHT22;15074;50.940;5.282;2023-03-01T07:51:01;2.60;99.90
27667;DHT22;15074;50.940;5.282;2023-03-01T07:53:28;2.30;99.90
27667;DHT22;15074;50.940;5.282;2023-03-01T07:56:20;2.40;99.90
27667;DHT22;15074;50.940;5.282;2023-03-01T08:02:10;2.50;99.90
27667;DHT22;15074;50.940;5.282;2023-03-01T08:04:36;4.00;99.90
27667;DHT22;15074;50.940;5.282;2023-03-01T08:07:04;5.60;99.90
27667;DHT22;15074;50.940;5.282;2023-03-01T08:09:30;7.10;99.90
27667;DHT22;15074;50.940;5.282;2023-03-01T08:11:57;8.60;99.90
27667;DHT22;15074;50.940;5.282;2023-03-01T08:14:25;9.80;99.90
27667;DHT22;15074;50.940;5.282;2023-03-01T08:16:50;10.80;99.90
27667;DHT22;15074;50.940;5.282;2023-03-01T08:19:17;11.40;98.80
27667;DHT22;15074;50.940;5.282;2023-03-01T08:21:43;11.50;96.40
27667;DHT22;15074;50.940;5.282;2023-03-01T08:24:08;11.30;96.40
27667;DHT22;15074;50.940;5.282;2023-03-01T08:26:36;11.50;95.90
27667;DHT22;15074;50.940;5.282;2023-03-01T08:29:03;11.80;95.30
27667;DHT22;15074;50.940;5.282;2023-03-01T08:31:35;12.30;93.90
27667;DHT22;15074;50.940;5.282;2023-03-01T08:34:04;12.50;93.10
27667;DHT22;15074;50.940;5.282;2023-03-01T08:36:32;12.70;93.30
27667;DHT22;15074;50.940;5.282;2023-03-01T08:38:59;13.00;92.30
27667;DHT22;15074;50.940;5.282;2023-03-01T08:41:24;13.60;91.30
27667;DHT22;15074;50.940;5.282;2023-03-01T08:43:50;13.70;90.40
27667;DHT22;15074;50.940;5.282;2023-03-01T08:46:16;13.30;90.10
27667;DHT22;15074;50.940;5.282;2023-03-01T08:48:42;13.10;90.10
27667;DHT22;15074;50.940;5.282;2023-03-01T08:51:13;11.80;91.10
27667;DHT22;15074;50.940;5.282;2023-03-01T08:53:40;12.10;92.20
27667;DHT22;15074;50.940;5.282;2023-03-01T08:56:06;12.80;90.60
27667;DHT22;15074;50.940;5.282;2023-03-01T08:58:32;13.10;90.00
27667;DHT22;15074;50.940;5.282;2023-03-01T09:00:57;14.10;87.70
27667;DHT22;15074;50.940;5.282;2023-03-01T09:03:24;14.60;87.30
27667;DHT22;15074;50.940;5.282;2023-03-01T09:05:50;13.70;87.00
27667;DHT22;15074;50.940;5.282;2023-03-01T09:08:17;13.20;88.00
27667;DHT22;15074;50.940;5.282;2023-03-01T09:10:43;13.90;85.80
27667;DHT22;15074;50.940;5.282;2023-03-01T09:13:08;13.70;86.60
27667;DHT22;15074;50.940;5.282;2023-03-01T09:15:36;13.80;84.60
27667;DHT22;15074;50.940;5.282;2023-03-01T09:18:02;13.10;85.80
27667;DHT22;15074;50.940;5.282;2023-03-01T09:20:28;12.70;87.20
27667;DHT22;15074;50.940;5.282;2023-03-01T09:22:56;13.10;87.30
27667;DHT22;15074;50.940;5.282;2023-03-01T09:25:21;14.20;85.20
27667;DHT22;15074;50.940;5.282;2023-03-01T09:27:51;14.60;82.20
27667;DHT22;15074;50.940;5.282;2023-03-01T09:30:17;13.90;84.10
27667;DHT22;15074;50.940;5.282;2023-03-01T09:32:43;13.60;84.20
27667;DHT22;15074;50.940;5.282;2023-03-01T09:35:10;15.20;82.00
27667;DHT22;15074;50.940;5.282;2023-03-01T09:37:36;15.70;78.40
27667;DHT22;15074;50.940;5.282;2023-03-01T09:40:18;15.00;77.80
27667;DHT22;15074;50.940;5.282;2023-03-01T09:43:01;14.90;79.50
27667;DHT22;15074;50.940;5.282;2023-03-01T09:45:35;14.50;80.10
27667;DHT22;15074;50.940;5.282;2023-03-01T09:48:04;14.80;79.70
27667;DHT22;15074;50.940;5.282;2023-03-01T09:50:40;15.50;78.00
27667;DHT22;15074;50.940;5.282;2023-03-01T09:53:11;17.00;75.20
27667;DHT22;15074;50.940;5.282;2023-03-01T09:55:52;16.10;75.50
27667;DHT22;15074;50.940;5.282;2023-03-01T10:01:53;14.90;77.50
27667;DHT22;15074;50.940;5.282;2023-03-01T10:04:45;15.10;75.20
27667;DHT22;15074;50.940;5.282;2023-03-01T10:09:58;14.20;76.10
27667;DHT22;15074;50.940;5.282;2023-03-01T10:12:31;14.60;76.50
27667;DHT22;15074;50.940;5.282;2023-03-01T10:17:52;14.00;76.90
27667;DHT22;15074;50.940;5.282;2023-03-01T10:20:30;14.20;78.90
27667;DHT22;15074;50.940;5.282;2023-03-01T10:22:59;14.90;75.60
27667;DHT22;15074;50.940;5.282;2023-03-01T10:31:05;15.50;74.60
27667;DHT22;15074;50.940;5.282;2023-03-01T10:33:36;15.60;72.90
27667;DHT22;15074;50.940;5.282;2023-03-01T10:36:03;15.50;73.20
27667;DHT22;15074;50.940;5.282;2023-03-01T10:38:31;15.60;72.70
27667;DHT22;15074;50.940;5.282;2023-03-01T10:41:05;15.20;72.10
27667;DHT22;15074;50.940;5.282;2023-03-01T10:43:56;13.80;77.00
27667;DHT22;15074;50.940;5.282;2023-03-01T10:46:28;13.20;76.50
27667;DHT22;15074;50.940;5.282;2023-03-01T10:51:47;13.30;76.70
27667;DHT22;15074;50.940;5.282;2023-03-01T10:54:27;13.60;76.10
27667;DHT22;15074;50.940;5.282;2023-03-01T10:56:55;14.60;73.80
27667;DHT22;15074;50.940;5.282;2023-03-01T10:59:28;14.70;73.30
27667;DHT22;15074;50.940;5.282;2023-03-01T11:04:29;16.30;72.20
27667;DHT22;15074;50.940;5.282;2023-03-01T11:06:59;16.80;70.20
27667;DHT22;15074;50.940;5.282;2023-03-01T11:09:25;17.10;71.20
27667;DHT22;15074;50.940;5.282;2023-03-01T11:11:55;14.60;71.00
27667;DHT22;15074;50.940;5.282;2023-03-01T11:15:08;12.60;74.90
27667;DHT22;15074;50.940;5.282;2023-03-01T11:17:28;13.90;75.40
27667;DHT22;15074;50.940;5.282;2023-03-01T11:23:04;14.70;72.30
27667;DHT22;15074;50.940;5.282;2023-03-01T11:25:37;15.60;70.70
27667;DHT22;15074;50.940;5.282;2023-03-01T11:28:06;15.90;68.40
27667;DHT22;15074;50.940;5.282;2023-03-01T11:33:46;16.10;68.80
27667;DHT22;15074;50.940;5.282;2023-03-01T11:36:18;14.30;71.00
27667;DHT22;15074;50.940;5.282;2023-03-01T11:38:47;14.20;72.60
27667;DHT22;15074;50.940;5.282;2023-03-01T11:41:14;15.30;71.60
27667;DHT22;15074;50.940;5.282;2023-03-01T11:49:14;14.40;71.40
27667;DHT22;15074;50.940;5.282;2023-03-01T12:02:36;16.90;66.20
27667;DHT22;15074;50.940;5.282;2023-03-01T12:08:03;13.80;71.60
27667;DHT22;15074;50.940;5.282;2023-03-01T12:10:52;14.30;71.20
27667;DHT22;15074;50.940;5.282;2023-03-01T12:16:53;16.30;65.80
27667;DHT22;15074;50.940;5.282;2023-03-01T12:24:59;15.00;67.40
27667;DHT22;15074;50.940;5.282;2023-03-01T12:30:33;14.90;67.30
27667;DHT22;15074;50.940;5.282;2023-03-01T12:33:17;13.20;70.30
27667;DHT22;15074;50.940;5.282;2023-03-01T12:39:42;11.00;74.60
27667;DHT22;15074;50.940;5.282;2023-03-01T12:49:42;12.80;74.60
27667;DHT22;15074;50.940;5.282;2023-03-01T12:54:55;14.00;71.60
27667;DHT22;15074;50.940;5.282;2023-03-01T12:57:40;14.00;70.90
27667;DHT22;15074;50.940;5.282;2023-03-01T13:06:12;13.80;70.90
27667;DHT22;15074;50.940;5.282;2023-03-01T13:09:19;13.30;71.30
27667;DHT22;15074;50.940;5.282;2023-03-01T13:11:48;13.50;73.00
27667;DHT22;15074;50.940;5.282;2023-03-01T13:16:46;14.80;71.40
27667;DHT22;15074;50.940;5.282;2023-03-01T13:19:25;14.30;70.20
27667;DHT22;15074;50.940;5.282;2023-03-01T13:21:53;14.50;69.70
27667;DHT22;15074;50.940;5.282;2023-03-01T13:24:48;14.70;68.30
27667;DHT22;15074;50.940;5.282;2023-03-01T13:29:54;14.00;70.00
27667;DHT22;15074;50.940;5.282;2023-03-01T13:32:23;14.10;70.80
27667;DHT22;15074;50.940;5.282;2023-03-01T13:34:52;14.40;70.20
27667;DHT22;15074;50.940;5.282;2023-03-01T13:37:21;14.10;70.00
27667;DHT22;15074;50.940;5.282;2023-03-01T13:39:47;13.40;71.50
27667;DHT22;15074;50.940;5.282;2023-03-01T13:42:32;13.40;71.70
27667;DHT22;15074;50.940;5.282;2023-03-01T13:44:59;13.90;71.40
27667;DHT22;15074;50.940;5.282;2023-03-01T13:47:27;13.60;70.90
27667;DHT22;15074;50.940;5.282;2023-03-01T13:50:03;14.00;71.70
27667;DHT22;15074;50.940;5.282;2023-03-01T13:52:44;14.50;70.00
27667;DHT22;15074;50.940;5.282;2023-03-01T13:57:43;14.00;70.10
27667;DHT22;15074;50.940;5.282;2023-03-01T14:00:35;13.70;71.00
27667;DHT22;15074;50.940;5.282;2023-03-01T14:05:37;13.40;72.00
27667;DHT22;15074;50.940;5.282;2023-03-01T14:08:04;13.50;71.10
27667;DHT22;15074;50.940;5.282;2023-03-01T14:10:49;13.30;71.30
27667;DHT22;15074;50.940;5.282;2023-03-01T14:13:32;12.50;72.70
27667;DHT22;15074;50.940;5.282;2023-03-01T14:16:08;12.40;73.80
27667;DHT22;15074;50.940;5.282;2023-03-01T14:21:42;13.30;72.20
27667;DHT22;15074;50.940;5.282;2023-03-01T14:24:17;13.00;70.60
27667;DHT22;15074;50.940;5.282;2023-03-01T14:26:44;12.70;72.00
27667;DHT22;15074;50.940;5.282;2023-03-01T14:29:36;12.70;73.20
27667;DHT22;15074;50.940;5.282;2023-03-01T14:32:30;13.00;73.80
27667;DHT22;15074;50.940;5.282;2023-03-01T14:34:56;13.00;73.30
27667;DHT22;15074;50.940;5.282;2023-03-01T14:37:30;12.00;74.50
27667;DHT22;15074;50.940;5.282;2023-03-01T14:39:58;12.00;75.90
27667;DHT22;15074;50.940;5.282;2023-03-01T14:42:26;11.80;77.00
27667;DHT22;15074;50.940;5.282;2023-03-01T14:44:55;11.80;77.40
27667;DHT22;15074;50.940;5.282;2023-03-01T14:47:35;11.70;77.00
27667;DHT22;15074;50.940;5.282;2023-03-01T14:50:07;11.50;78.00
27667;DHT22;15074;50.940;5.282;2023-03-01T14:52:42;11.80;77.90
27667;DHT22;15074;50.940;5.282;2023-03-01T14:55:18;11.50;77.80
27667;DHT22;15074;50.940;5.282;2023-03-01T14:57:48;11.40;77.40
27667;DHT22;15074;50.940;5.282;2023-03-01T15:00:25;10.70;79.00
27667;DHT22;15074;50.940;5.282;2023-03-01T15:02:54;10.80;79.70
27667;DHT22;15074;50.940;5.282;2023-03-01T15:05:39;11.10;78.30
27667;DHT22;15074;50.940;5.282;2023-03-01T15:08:06;10.40;80.00
27667;DHT22;15074;50.940;5.282;2023-03-01T15:10:36;10.30;82.60
27667;DHT22;15074;50.940;5.282;2023-03-01T15:13:23;9.90;81.60
27667;DHT22;15074;50.940;5.282;2023-03-01T15:15:50;9.60;82.20
27667;DHT22;15074;50.940;5.282;2023-03-01T15:18:22;9.30;83.20
27667;DHT22;15074;50.940;5.282;2023-03-01T15:20:51;9.20;83.40
27667;DHT22;15074;50.940;5.282;2023-03-01T15:23:28;9.10;84.50
27667;DHT22;15074;50.940;5.282;2023-03-01T15:25:56;9.10;84.50
27667;DHT22;15074;50.940;5.282;2023-03-01T15:28:28;9.00;83.00
27667;DHT22;15074;50.940;5.282;2023-03-01T15:30:57;8.80;83.50
27667;DHT22;15074;50.940;5.282;2023-03-01T15:35:53;8.70;86.20
27667;DHT22;15074;50.940;5.282;2023-03-01T15:38:52;8.60;85.00
27667;DHT22;15074;50.940;5.282;2023-03-01T15:41:31;8.60;85.00
27667;DHT22;15074;50.940;5.282;2023-03-01T15:43:58;8.40;85.40
27667;DHT22;15074;50.940;5.282;2023-03-01T15:46:33;8.30;86.30
27667;DHT22;15074;50.940;5.282;2023-03-01T15:49:02;8.30;87.00
27667;DHT22;15074;50.940;5.282;2023-03-01T15:51:37;8.40;86.80
27667;DHT22;15074;50.940;5.282;2023-03-01T15:54:11;8.40;86.60
27667;DHT22;15074;50.940;5.282;2023-03-01T15:56:38;8.30;87.20
27667;DHT22;15074;50.940;5.282;2023-03-01T15:59:04;8.20;87.30
27667;DHT22;15074;50.940;5.282;2023-03-01T16:01:31;8.10;88.10
27667;DHT22;15074;50.940;5.282;2023-03-01T16:03:59;8.10;88.20
27667;DHT22;15074;50.940;5.282;2023-03-01T16:06:25;7.80;89.70
27667;DHT22;15074;50.940;5.282;2023-03-01T16:08:50;7.80;89.80
27667;DHT22;15074;50.940;5.282;2023-03-01T16:11:19;7.70;89.80
27667;DHT22;15074;50.940;5.282;2023-03-01T16:13:45;7.80;90.00
27667;DHT22;15074;50.940;5.282;2023-03-01T16:16:12;7.70;90.30
27667;DHT22;15074;50.940;5.282;2023-03-01T16:18:41;7.70;90.50
27667;DHT22;15074;50.940;5.282;2023-03-01T16:21:06;7.70;90.50
27667;DHT22;15074;50.940;5.282;2023-03-01T16:23:33;7.70;90.60
27667;DHT22;15074;50.940;5.282;2023-03-01T16:25:59;7.60;90.60
27667;DHT22;15074;50.940;5.282;2023-03-01T16:28:26;7.50;91.00
27667;DHT22;15074;50.940;5.282;2023-03-01T16:30:52;7.40;91.30
27667;DHT22;15074;50.940;5.282;2023-03-01T16:33:18;7.40;91.20
27667;DHT22;15074;50.940;5.282;2023-03-01T16:35:43;7.40;91.20
27667;DHT22;15074;50.940;5.282;2023-03-01T16:38:10;7.40;91.50
27667;DHT22;15074;50.940;5.282;2023-03-01T16:40:36;7.30;91.60
27667;DHT22;15074;50.940;5.282;2023-03-01T16:43:02;7.30;91.90
27667;DHT22;15074;50.940;5.282;2023-03-01T16:45:32;7.30;92.20
27667;DHT22;15074;50.940;5.282;2023-03-01T16:48:00;7.20;92.40
27667;DHT22;15074;50.940;5.282;2023-03-01T16:50:26;7.10;92.40
27667;DHT22;15074;50.940;5.282;2023-03-01T16:52:52;7.10;92.60
27667;DHT22;15074;50.940;5.282;2023-03-01T16:55:18;7.20;92.90
27667;DHT22;15074;50.940;5.282;2023-03-01T16:57:43;7.10;92.60
27667;DHT22;15074;50.940;5.282;2023-03-01T17:00:11;7.00;93.10
27667;DHT22;15074;50.940;5.282;2023-03-01T17:02:38;7.00;93.30
27667;DHT22;15074;50.940;5.282;2023-03-01T17:05:04;6.80;94.00
27667;DHT22;15074;50.940;5.282;2023-03-01T17:07:31;6.70;94.40
27667;DHT22;15074;50.940;5.282;2023-03-01T17:10:05;6.70;94.60
27667;DHT22;15074;50.940;5.282;2023-03-01T17:12:31;6.70;94.90
27667;DHT22;15074;50.940;5.282;2023-03-01T17:14:58;6.70;95.10
27667;DHT22;15074;50.940;5.282;2023-03-01T17:17:23;6.60;95.50
27667;DHT22;15074;50.940;5.282;2023-03-01T17:19:49;6.50;95.70
27667;DHT22;15074;50.940;5.282;2023-03-01T17:22:15;6.50;95.90
27667;DHT22;15074;50.940;5.282;2023-03-01T17:24:42;6.40;96.20
27667;DHT22;15074;50.940;5.282;2023-03-01T17:27:08;6.30;96.60
27667;DHT22;15074;50.940;5.282;2023-03-01T17:29:34;6.20;96.90
27667;DHT22;15074;50.940;5.282;2023-03-01T17:32:00;6.20;97.00
27667;DHT22;15074;50.940;5.282;2023-03-01T17:34:26;6.10;97.60
27667;DHT22;15074;50.940;5.282;2023-03-01T17:36:52;5.90;98.00
27667;DHT22;15074;50.940;5.282;2023-03-01T17:42:23;5.90;98.60
27667;DHT22;15074;50.940;5.282;2023-03-01T17:44:49;5.80;99.00
27667;DHT22;15074;50.940;5.282;2023-03-01T17:47:16;5.80;99.70
27667;DHT22;15074;50.940;5.282;2023-03-01T17:49:43;5.80;99.90
27667;DHT22;15074;50.940;5.282;2023-03-01T17:52:09;5.60;99.90
27667;DHT22;15074;50.940;5.282;2023-03-01T17:54:35;5.60;99.90
27667;DHT22;15074;50.940;5.282;2023-03-01T17:57:00;5.50;99.90
27667;DHT22;15074;50.940;5.282;2023-03-01T17:59:26;5.50;99.90
27667;DHT22;15074;50.940;5.282;2023-03-01T18:01:57;5.40;99.90
27667;DHT22;15074;50.940;5.282;2023-03-01T18:04:26;5.30;99.90
27667;DHT22;15074;50.940;5.282;2023-03-01T18:06:52;5.40;99.90
27667;DHT22;15074;50.940;5.282;2023-03-01T18:09:17;5.40;99.90
27667;DHT22;15074;50.940;5.282;2023-03-01T18:11:43;5.40;99.90
27667;DHT22;15074;50.940;5.282;2023-03-01T18:14:09;5.40;99.90
27667;DHT22;15074;50.940;5.282;2023-03-01T18:16:34;5.30;99.90
27667;DHT22;15074;50.940;5.282;2023-03-01T18:19:01;5.20;99.90
27667;DHT22;15074;50.940;5.282;2023-03-01T18:21:27;5.20;99.90
27667;DHT22;15074;50.940;5.282;2023-03-01T18:23:53;5.20;99.90
27667;DHT22;15074;50.940;5.282;2023-03-01T18:26:19;5.20;99.90
27667;DHT22;15074;50.940;5.282;2023-03-01T18:28:48;5.20;99.90
27667;DHT22;15074;50.940;5.282;2023-03-01T18:31:16;5.10;99.90
27667;DHT22;15074;50.940;5.282;2023-03-01T18:33:47;5.00;99.90
27667;DHT22;15074;50.940;5.282;2023-03-01T18:36:20;4.90;99.90
27667;DHT22;15074;50.940;5.282;2023-03-01T18:38:46;4.90;99.90
27667;DHT22;15074;50.940;5.282;2023-03-01T18:41:12;4.90;99.90
27667;DHT22;15074;50.940;5.282;2023-03-01T18:43:37;4.90;99.90
27667;DHT22;15074;50.940;5.282;2023-03-01T18:46:03;4.80;99.90
27667;DHT22;15074;50.940;5.282;2023-03-01T18:48:30;4.80;99.90
27667;DHT22;15074;50.940;5.282;2023-03-01T18:50:56;4.70;99.90
27667;DHT22;15074;50.940;5.282;2023-03-01T18:53:22;4.60;99.90
27667;DHT22;15074;50.940;5.282;2023-03-01T18:55:47;4.40;99.90
27667;DHT22;15074;50.940;5.282;2023-03-01T18:58:13;4.50;99.90
27667;DHT22;15074;50.940;5.282;2023-03-01T19:00:39;4.40;99.90
27667;DHT22;15074;50.940;5.282;2023-03-01T19:03:04;4.20;99.90
27667;DHT22;15074;50.940;5.282;2023-03-01T19:05:30;4.20;99.90
27667;DHT22;15074;50.940;5.282;2023-03-01T19:07:56;4.20;99.90
27667;DHT22;15074;50.940;5.282;2023-03-01T19:10:23;4.20;99.90
27667;DHT22;15074;50.940;5.282;2023-03-01T19:12:48;4.20;99.90
27667;DHT22;15074;50.940;5.282;2023-03-01T19:15:14;4.20;99.90
27667;DHT22;15074;50.940;5.282;2023-03-01T19:17:43;4.20;99.90
27667;DHT22;15074;50.940;5.282;2023-03-01T19:20:09;4.20;99.90
27667;DHT22;15074;50.940;5.282;2023-03-01T19:22:35;4.30;99.90
27667;DHT22;15074;50.940;5.282;2023-03-01T19:25:00;4.20;99.90
27667;DHT22;15074;50.940;5.282;2023-03-01T19:27:26;4.10;99.90
27667;DHT22;15074;50.940;5.282;2023-03-01T19:29:52;4.00;99.90
27667;DHT22;15074;50.940;5.282;2023-03-01T19:32:17;4.00;99.90
27667;DHT22;15074;50.940;5.282;2023-03-01T19:34:43;4.10;99.90
27667;DHT22;15074;50.940;5.282;2023-03-01T19:37:11;4.10;99.90
27667;DHT22;15074;50.940;5.282;2023-03-01T19:39:37;4.10;99.90
27667;DHT22;15074;50.940;5.282;2023-03-01T19:42:02;4.10;99.90
27667;DHT22;15074;50.940;5.282;2023-03-01T19:44:30;4.10;99.90
27667;DHT22;15074;50.940;5.282;2023-03-01T19:46:56;4.00;99.90
27667;DHT22;15074;50.940;5.282;2023-03-01T19:49:23;3.90;99.90
27667;DHT22;15074;50.940;5.282;2023-03-01T19:51:49;3.90;99.90
27667;DHT22;15074;50.940;5.282;2023-03-01T19:54:14;3.90;99.90
27667;DHT22;15074;50.940;5.282;2023-03-01T19:56:45;3.90;99.90
27667;DHT22;15074;50.940;5.282;2023-03-01T19:59:11;3.80;99.90
27667;DHT22;15074;50.940;5.282;2023-03-01T20:01:37;3.80;99.90
27667;DHT22;15074;50.940;5.282;2023-03-01T20:04:07;3.70;99.90
27667;DHT22;15074;50.940;5.282;2023-03-01T20:06:34;3.80;99.90
27667;DHT22;15074;50.940;5.282;2023-03-01T20:09:05;3.80;99.90
27667;DHT22;15074;50.940;5.282;2023-03-01T20:11:31;3.80;99.90
27667;DHT22;15074;50.940;5.282;2023-03-01T20:13:57;3.80;99.90
27667;DHT22;15074;50.940;5.282;2023-03-01T20:16:23;3.80;99.90
27667;DHT22;15074;50.940;5.282;2023-03-01T20:18:51;3.60;99.90
27667;DHT22;15074;50.940;5.282;2023-03-01T20:28:19;3.50;99.90
27667;DHT22;15074;50.940;5.282;2023-03-01T20:51:10;3.20;99.90
27667;DHT22;15074;50.940;5.282;2023-03-01T20:53:36;3.20;99.90
27667;DHT22;15074;50.940;5.282;2023-03-01T21:23:43;2.90;99.90
27667;DHT22;15074;50.940;5.282;2023-03-01T22:13:32;2.50;99.90
27667;DHT22;15074;50.940;5.282;2023-03-01T22:15:59;2.50;99.90
27667;DHT22;15074;50.940;5.282;2023-03-01T22:18:25;2.50;99.90
27667;DHT22;15074;50.940;5.282;2023-03-01T22:24:15;2.50;99.90
27667;DHT22;15074;50.940;5.282;2023-03-01T22:26:45;2.40;99.90
27667;DHT22;15074;50.940;5.282;2023-03-01T22:39:07;2.40;99.90
27667;DHT22;15074;50.940;5.282;2023-03-01T22:41:39;2.40;99.90
27667;DHT22;15074;50.940;5.282;2023-03-01T22:44:33;2.40;99.90
27667;DHT22;15074;50.940;5.282;2023-03-01T22:50:20;2.40;99.90
27667;DHT22;15074;50.940;5.282;2023-03-01T22:59:57;2.40;99.90
27667;DHT22;15074;50.940;5.282;2023-03-01T23:12:28;2.10;99.90
27667;DHT22;15074;50.940;5.282;2023-03-01T23:14:53;2.00;99.90
27667;DHT22;15074;50.940;5.282;2023-03-01T23:17:24;2.00;99.90
27667;DHT22;15074;50.940;5.282;2023-03-01T23:19:49;2.00;99.90
27667;DHT22;15074;50.940;5.282;2023-03-01T23:22:16;1.80;99.90
27667;DHT22;15074;50.940;5.282;2023-03-01T23:36:37;1.70;99.90